sensor_id;sensor_type;location;lat;lon;timestamp;pressure;altitude;pressure_sealevel;temperature;humidity
11302;BME280;5706;50.650;13.380;2022-08-19T00:01:49;56167.19;;;-140.63;72.71
11302;BME280;5706;50.650;13.380;2022-08-19T00:04:21;56191.03;;;-140.63;72.53
11302;BME280;5706;50.650;13.380;2022-08-19T00:06:51;56163.22;;;-140.63;72.86
11302;BME280;5706;50.650;13.380;2022-08-19T00:09:21;56167.19;;;-140.63;72.78
11302;BME280;5706;50.650;13.380;2022-08-19T00:11:52;56183.09;;;-140.63;73.00
11302;BME280;5706;50.650;13.380;2022-08-19T00:14:21;56189.06;;;-140.63;72.98
11302;BME280;5706;50.650;13.380;2022-08-19T00:16:51;56181.09;;;-140.63;73.01
11302;BME280;5706;50.650;13.380;2022-08-19T00:19:20;56189.06;;;-140.63;73.06
11302;BME280;5706;50.650;13.380;2022-08-19T00:21:48;56145.31;;;-140.63;72.92
11302;BME280;5706;50.650;13.380;2022-08-19T00:24:16;56159.22;;;-140.63;72.80
11302;BME280;5706;50.650;13.380;2022-08-19T00:26:44;56193.03;;;-140.63;72.66
11302;BME280;5706;50.650;13.380;2022-08-19T00:29:17;56157.25;;;-140.63;72.28
11302;BME280;5706;50.650;13.380;2022-08-19T00:31:46;56163.22;;;-140.63;72.53
11302;BME280;5706;50.650;13.380;2022-08-19T00:34:15;56151.28;;;-140.63;72.47
11302;BME280;5706;50.650;13.380;2022-08-19T00:36:43;56191.03;;;-140.63;72.44
11302;BME280;5706;50.650;13.380;2022-08-19T00:39:11;56149.28;;;-140.63;72.57
11302;BME280;5706;50.650;13.380;2022-08-19T00:41:41;56167.19;;;-140.63;72.76
11302;BME280;5706;50.650;13.380;2022-08-19T00:44:12;56167.19;;;-140.63;73.23
11302;BME280;5706;50.650;13.380;2022-08-19T00:46:46;56185.06;;;-140.63;72.38
11302;BME280;5706;50.650;13.380;2022-08-19T00:49:19;56212.91;;;-140.63;72.38
11302;BME280;5706;50.650;13.380;2022-08-19T00:51:53;56197.00;;;-140.63;73.01
11302;BME280;5706;50.650;13.380;2022-08-19T00:54:25;56177.13;;;-140.63;73.30
11302;BME280;5706;50.650;13.380;2022-08-19T00:56:57;56165.19;;;-140.63;72.97
11302;BME280;5706;50.650;13.380;2022-08-19T00:59:27;56163.22;;;-140.63;73.09
11302;BME280;5706;50.650;13.380;2022-08-19T01:01:56;56204.97;;;-140.63;73.19
11302;BME280;5706;50.650;13.380;2022-08-19T01:04:23;56171.16;;;-140.63;72.94
11302;BME280;5706;50.650;13.380;2022-08-19T01:06:51;56161.22;;;-140.63;73.33
11302;BME280;5706;50.650;13.380;2022-08-19T01:09:19;56191.03;;;-140.63;72.83
11302;BME280;5706;50.650;13.380;2022-08-19T01:11:47;56175.13;;;-140.63;73.06
11302;BME280;5706;50.650;13.380;2022-08-19T01:14:15;56177.13;;;-140.63;73.32
11302;BME280;5706;50.650;13.380;2022-08-19T01:16:45;56206.94;;;-140.63;73.75
11302;BME280;5706;50.650;13.380;2022-08-19T01:19:18;56187.06;;;-140.63;73.28
11302;BME280;5706;50.650;13.380;2022-08-19T01:21:56;56197.00;;;-140.63;73.16
11302;BME280;5706;50.650;13.380;2022-08-19T01:24:30;56161.22;;;-140.63;73.43
11302;BME280;5706;50.650;13.380;2022-08-19T01:26:58;56179.13;;;-140.63;73.28
11302;BME280;5706;50.650;13.380;2022-08-19T01:29:26;56173.16;;;-140.63;73.46
11302;BME280;5706;50.650;13.380;2022-08-19T01:31:54;56171.16;;;-140.63;73.08
11302;BME280;5706;50.650;13.380;2022-08-19T01:34:22;56149.28;;;-140.63;73.57
11302;BME280;5706;50.650;13.380;2022-08-19T01:36:49;56191.03;;;-140.63;73.20
11302;BME280;5706;50.650;13.380;2022-08-19T01:39:24;56165.19;;;-140.63;73.66
11302;BME280;5706;50.650;13.380;2022-08-19T01:41:53;56165.19;;;-140.63;73.56
11302;BME280;5706;50.650;13.380;2022-08-19T01:44:21;56189.06;;;-140.63;73.43
11302;BME280;5706;50.650;13.380;2022-08-19T01:46:50;56189.06;;;-140.63;73.11
11302;BME280;5706;50.650;13.380;2022-08-19T01:49:21;56177.13;;;-140.63;73.73
11302;BME280;5706;50.650;13.380;2022-08-19T01:51:50;56187.06;;;-140.63;73.69
11302;BME280;5706;50.650;13.380;2022-08-19T01:54:20;56161.22;;;-140.63;73.70
11302;BME280;5706;50.650;13.380;2022-08-19T01:56:50;56175.13;;;-140.63;73.65
11302;BME280;5706;50.650;13.380;2022-08-19T01:59:22;56191.03;;;-140.63;73.79
11302;BME280;5706;50.650;13.380;2022-08-19T02:01:51;56175.13;;;-140.63;73.84
11302;BME280;5706;50.650;13.380;2022-08-19T02:04:19;56191.03;;;-140.63;73.93
11302;BME280;5706;50.650;13.380;2022-08-19T02:06:46;56197.00;;;-140.63;73.85
11302;BME280;5706;50.650;13.380;2022-08-19T02:09:14;56187.06;;;-140.63;73.90
11302;BME280;5706;50.650;13.380;2022-08-19T02:11:42;56206.94;;;-140.63;73.98
11302;BME280;5706;50.650;13.380;2022-08-19T02:14:11;56179.13;;;-140.63;73.72
11302;BME280;5706;50.650;13.380;2022-08-19T02:16:39;56171.16;;;-140.63;73.79
11302;BME280;5706;50.650;13.380;2022-08-19T02:19:06;56193.03;;;-140.63;73.94
11302;BME280;5706;50.650;13.380;2022-08-19T02:21:36;56212.91;;;-140.63;74.08
11302;BME280;5706;50.650;13.380;2022-08-19T02:24:04;56187.06;;;-140.63;74.21
11302;BME280;5706;50.650;13.380;2022-08-19T02:26:32;56147.31;;;-140.63;74.27
11302;BME280;5706;50.650;13.380;2022-08-19T02:29:00;56163.22;;;-140.63;74.15
11302;BME280;5706;50.650;13.380;2022-08-19T02:31:30;56200.97;;;-140.63;74.31
11302;BME280;5706;50.650;13.380;2022-08-19T02:33:58;56195.03;;;-140.63;74.27
11302;BME280;5706;50.650;13.380;2022-08-19T02:36:26;56224.84;;;-140.63;74.35
11302;BME280;5706;50.650;13.380;2022-08-19T02:38:55;56163.22;;;-140.63;74.26
11302;BME280;5706;50.650;13.380;2022-08-19T02:41:24;56171.16;;;-140.63;74.57
11302;BME280;5706;50.650;13.380;2022-08-19T02:43:53;56159.22;;;-140.63;74.31
11302;BME280;5706;50.650;13.380;2022-08-19T02:46:23;56151.28;;;-140.63;74.44
11302;BME280;5706;50.650;13.380;2022-08-19T02:48:55;56199.00;;;-140.63;74.44
11302;BME280;5706;50.650;13.380;2022-08-19T02:51:26;56163.22;;;-140.63;74.46
11302;BME280;5706;50.650;13.380;2022-08-19T02:53:57;56189.06;;;-140.63;74.35
11302;BME280;5706;50.650;13.380;2022-08-19T02:56:28;56139.34;;;-140.63;74.71
11302;BME280;5706;50.650;13.380;2022-08-19T02:58:57;56187.06;;;-140.63;74.59
11302;BME280;5706;50.650;13.380;2022-08-19T03:01:27;56177.13;;;-140.63;74.71
11302;BME280;5706;50.650;13.380;2022-08-19T03:03:59;56163.22;;;-140.63;75.01
11302;BME280;5706;50.650;13.380;2022-08-19T03:06:30;56222.84;;;-140.63;74.91
11302;BME280;5706;50.650;13.380;2022-08-19T03:08:58;56206.94;;;-140.63;75.12
11302;BME280;5706;50.650;13.380;2022-08-19T03:11:29;56206.94;;;-140.63;74.96
11302;BME280;5706;50.650;13.380;2022-08-19T03:13:59;56212.91;;;-140.63;75.15
11302;BME280;5706;50.650;13.380;2022-08-19T03:16:30;56197.00;;;-140.63;75.39
11302;BME280;5706;50.650;13.380;2022-08-19T03:19:01;56155.25;;;-140.63;75.22
11302;BME280;5706;50.650;13.380;2022-08-19T03:21:32;56191.03;;;-140.63;75.20
11302;BME280;5706;50.650;13.380;2022-08-19T03:24:03;56191.03;;;-140.63;75.06
11302;BME280;5706;50.650;13.380;2022-08-19T03:26:33;56222.84;;;-140.63;75.21
11302;BME280;5706;50.650;13.380;2022-08-19T03:29:04;56218.88;;;-140.63;75.09
11302;BME280;5706;50.650;13.380;2022-08-19T03:31:34;56187.06;;;-140.63;75.29
11302;BME280;5706;50.650;13.380;2022-08-19T03:34:03;56173.16;;;-140.63;75.30
11302;BME280;5706;50.650;13.380;2022-08-19T03:36:31;56185.06;;;-140.63;75.57
11302;BME280;5706;50.650;13.380;2022-08-19T03:39:00;56183.09;;;-140.63;75.33
11302;BME280;5706;50.650;13.380;2022-08-19T03:41:30;56220.88;;;-140.63;75.53
11302;BME280;5706;50.650;13.380;2022-08-19T03:43:59;56204.97;;;-140.63;75.52
11302;BME280;5706;50.650;13.380;2022-08-19T03:46:30;56171.16;;;-140.63;75.32
11302;BME280;5706;50.650;13.380;2022-08-19T03:49:01;56185.06;;;-140.63;75.41
11302;BME280;5706;50.650;13.380;2022-08-19T03:51:34;56208.94;;;-140.63;75.32
11302;BME280;5706;50.650;13.380;2022-08-19T03:54:06;56189.06;;;-140.63;75.64
11302;BME280;5706;50.650;13.380;2022-08-19T03:56:37;56204.97;;;-140.63;75.44
11302;BME280;5706;50.650;13.380;2022-08-19T03:59:08;56224.84;;;-140.63;75.14
11302;BME280;5706;50.650;13.380;2022-08-19T04:01:38;56181.09;;;-140.63;75.74
11302;BME280;5706;50.650;13.380;2022-08-19T04:04:08;56199.00;;;-140.63;75.57
11302;BME280;5706;50.650;13.380;2022-08-19T04:06:37;56202.97;;;-140.63;75.51
11302;BME280;5706;50.650;13.380;2022-08-19T04:09:07;56202.97;;;-140.63;75.66
11302;BME280;5706;50.650;13.380;2022-08-19T04:11:38;56202.97;;;-140.63;75.37
11302;BME280;5706;50.650;13.380;2022-08-19T04:14:07;56214.91;;;-140.63;75.52
11302;BME280;5706;50.650;13.380;2022-08-19T04:16:36;56212.91;;;-140.63;76.17
11302;BME280;5706;50.650;13.380;2022-08-19T04:19:04;56216.88;;;-140.63;76.03
11302;BME280;5706;50.650;13.380;2022-08-19T04:21:34;56202.97;;;-140.63;75.85
11302;BME280;5706;50.650;13.380;2022-08-19T04:24:03;56224.84;;;-140.63;75.99
11302;BME280;5706;50.650;13.380;2022-08-19T04:26:33;56230.81;;;-140.63;75.94
11302;BME280;5706;50.650;13.380;2022-08-19T04:29:05;56183.09;;;-140.63;76.00
11302;BME280;5706;50.650;13.380;2022-08-19T04:31:34;56202.97;;;-140.63;75.93
11302;BME280;5706;50.650;13.380;2022-08-19T04:34:03;56204.97;;;-140.63;75.61
11302;BME280;5706;50.650;13.380;2022-08-19T04:36:36;56210.94;;;-140.63;75.55
11302;BME280;5706;50.650;13.380;2022-08-19T04:39:08;56189.06;;;-140.63;75.37
11302;BME280;5706;50.650;13.380;2022-08-19T04:41:38;56228.81;;;-140.63;75.82
11302;BME280;5706;50.650;13.380;2022-08-19T04:44:23;56244.72;;;-140.63;75.44
11302;BME280;5706;50.650;13.380;2022-08-19T04:46:52;56222.84;;;-140.63;75.70
11302;BME280;5706;50.650;13.380;2022-08-19T04:49:21;56200.97;;;-140.63;75.59
11302;BME280;5706;50.650;13.380;2022-08-19T04:51:52;56202.97;;;-140.63;75.32
11302;BME280;5706;50.650;13.380;2022-08-19T04:54:23;56195.03;;;-140.63;75.59
11302;BME280;5706;50.650;13.380;2022-08-19T04:56:52;56222.84;;;-140.63;75.31
11302;BME280;5706;50.650;13.380;2022-08-19T04:59:21;56236.78;;;-140.63;75.42
11302;BME280;5706;50.650;13.380;2022-08-19T05:01:49;56204.97;;;-140.63;75.30
11302;BME280;5706;50.650;13.380;2022-08-19T05:04:18;56197.00;;;-140.63;75.34
11302;BME280;5706;50.650;13.380;2022-08-19T05:06:47;56210.94;;;-140.63;75.18
11302;BME280;5706;50.650;13.380;2022-08-19T05:09:18;56216.88;;;-140.63;75.19
11302;BME280;5706;50.650;13.380;2022-08-19T05:11:46;56200.97;;;-140.63;75.55
11302;BME280;5706;50.650;13.380;2022-08-19T05:14:16;56199.00;;;-140.63;74.92
11302;BME280;5706;50.650;13.380;2022-08-19T05:16:47;56210.94;;;-140.63;75.50
11302;BME280;5706;50.650;13.380;2022-08-19T05:19:14;56254.66;;;-140.63;75.32
11302;BME280;5706;50.650;13.380;2022-08-19T05:22:00;56216.88;;;-140.63;75.29
11302;BME280;5706;50.650;13.380;2022-08-19T05:24:47;56183.09;;;-140.63;75.24
11302;BME280;5706;50.650;13.380;2022-08-19T05:27:14;56199.00;;;-140.63;74.89
11302;BME280;5706;50.650;13.380;2022-08-19T05:29:42;56197.00;;;-140.63;74.79
11302;BME280;5706;50.650;13.380;2022-08-19T05:32:09;56206.94;;;-140.63;74.60
11302;BME280;5706;50.650;13.380;2022-08-19T05:34:38;56206.94;;;-140.63;74.56
11302;BME280;5706;50.650;13.380;2022-08-19T05:37:06;56204.97;;;-140.63;74.43
11302;BME280;5706;50.650;13.380;2022-08-19T05:39:35;56183.09;;;-140.63;75.14
11302;BME280;5706;50.650;13.380;2022-08-19T05:42:06;56216.88;;;-140.63;74.64
11302;BME280;5706;50.650;13.380;2022-08-19T05:44:38;56171.16;;;-140.63;74.22
11302;BME280;5706;50.650;13.380;2022-08-19T05:47:10;56181.09;;;-140.63;74.64
11302;BME280;5706;50.650;13.380;2022-08-19T05:49:41;56224.84;;;-140.63;74.40
11302;BME280;5706;50.650;13.380;2022-08-19T05:52:11;56222.84;;;-140.63;74.28
11302;BME280;5706;50.650;13.380;2022-08-19T05:54:42;56220.88;;;-140.63;74.65
11302;BME280;5706;50.650;13.380;2022-08-19T05:57:11;56222.84;;;-140.63;74.95
11302;BME280;5706;50.650;13.380;2022-08-19T05:59:39;56200.97;;;-140.63;74.39
11302;BME280;5706;50.650;13.380;2022-08-19T06:02:07;56208.94;;;-140.63;74.64
11302;BME280;5706;50.650;13.380;2022-08-19T06:04:38;56210.94;;;-140.63;74.73
11302;BME280;5706;50.650;13.380;2022-08-19T06:07:08;56214.91;;;-140.63;74.43
11302;BME280;5706;50.650;13.380;2022-08-19T06:09:36;56226.84;;;-140.63;74.42
11302;BME280;5706;50.650;13.380;2022-08-19T06:12:04;56216.88;;;-140.63;74.34
11302;BME280;5706;50.650;13.380;2022-08-19T06:14:35;56189.06;;;-140.63;74.49
11302;BME280;5706;50.650;13.380;2022-08-19T06:17:03;56175.13;;;-140.63;74.08
11302;BME280;5706;50.650;13.380;2022-08-19T06:19:31;56171.16;;;-140.63;74.44
11302;BME280;5706;50.650;13.380;2022-08-19T06:22:00;56222.84;;;-140.63;74.27
11302;BME280;5706;50.650;13.380;2022-08-19T06:24:29;56175.13;;;-140.63;74.11
11302;BME280;5706;50.650;13.380;2022-08-19T06:26:58;56224.84;;;-140.63;73.71
11302;BME280;5706;50.650;13.380;2022-08-19T06:29:28;56195.03;;;-140.63;73.61
11302;BME280;5706;50.650;13.380;2022-08-19T06:32:00;56212.91;;;-140.63;73.38
11302;BME280;5706;50.650;13.380;2022-08-19T06:34:31;56216.88;;;-140.63;74.60
11302;BME280;5706;50.650;13.380;2022-08-19T06:37:01;56228.81;;;-140.63;74.31
11302;BME280;5706;50.650;13.380;2022-08-19T06:39:33;56240.75;;;-140.63;74.28
11302;BME280;5706;50.650;13.380;2022-08-19T06:42:04;56204.97;;;-140.63;73.61
11302;BME280;5706;50.650;13.380;2022-08-19T06:44:36;56175.13;;;-140.63;74.73
11302;BME280;5706;50.650;13.380;2022-08-19T06:47:11;56199.00;;;-140.63;73.60
11302;BME280;5706;50.650;13.380;2022-08-19T06:49:40;56218.88;;;-140.63;73.24
11302;BME280;5706;50.650;13.380;2022-08-19T06:52:08;56212.91;;;-140.63;73.70
11302;BME280;5706;50.650;13.380;2022-08-19T06:54:38;56195.03;;;-140.63;73.43
11302;BME280;5706;50.650;13.380;2022-08-19T06:57:07;56218.88;;;-140.63;73.16
11302;BME280;5706;50.650;13.380;2022-08-19T06:59:40;56197.00;;;-140.63;73.21
11302;BME280;5706;50.650;13.380;2022-08-19T07:02:09;56183.09;;;-140.63;73.67
11302;BME280;5706;50.650;13.380;2022-08-19T07:04:38;56195.03;;;-140.63;73.93
11302;BME280;5706;50.650;13.380;2022-08-19T07:07:07;56212.91;;;-140.63;73.28
11302;BME280;5706;50.650;13.380;2022-08-19T07:09:41;56197.00;;;-140.63;73.35
11302;BME280;5706;50.650;13.380;2022-08-19T07:12:13;56191.03;;;-140.63;73.25
11302;BME280;5706;50.650;13.380;2022-08-19T07:14:41;56216.88;;;-140.63;72.96
11302;BME280;5706;50.650;13.380;2022-08-19T07:17:12;56193.03;;;-140.63;73.21
11302;BME280;5706;50.650;13.380;2022-08-19T07:19:41;56193.03;;;-140.63;73.09
11302;BME280;5706;50.650;13.380;2022-08-19T07:22:09;56183.09;;;-140.63;73.18
11302;BME280;5706;50.650;13.380;2022-08-19T07:24:37;56210.94;;;-140.63;73.21
11302;BME280;5706;50.650;13.380;2022-08-19T07:27:06;56197.00;;;-140.63;72.90
11302;BME280;5706;50.650;13.380;2022-08-19T07:29:36;56159.22;;;-140.63;73.36
11302;BME280;5706;50.650;13.380;2022-08-19T07:32:04;56187.06;;;-140.63;73.68
11302;BME280;5706;50.650;13.380;2022-08-19T07:34:33;56197.00;;;-140.63;73.36
11302;BME280;5706;50.650;13.380;2022-08-19T07:37:03;56185.06;;;-140.63;73.56
11302;BME280;5706;50.650;13.380;2022-08-19T07:39:34;56197.00;;;-140.63;73.43
11302;BME280;5706;50.650;13.380;2022-08-19T07:42:05;56212.91;;;-140.63;73.59
11302;BME280;5706;50.650;13.380;2022-08-19T07:44:36;56210.94;;;-140.63;73.84
11302;BME280;5706;50.650;13.380;2022-08-19T07:47:04;56195.03;;;-140.63;73.84
11302;BME280;5706;50.650;13.380;2022-08-19T07:49:34;56175.13;;;-140.63;73.60
11302;BME280;5706;50.650;13.380;2022-08-19T07:52:05;56216.88;;;-140.63;73.80
11302;BME280;5706;50.650;13.380;2022-08-19T07:54:37;56189.06;;;-140.63;74.16
11302;BME280;5706;50.650;13.380;2022-08-19T07:57:07;56214.91;;;-140.63;73.58
11302;BME280;5706;50.650;13.380;2022-08-19T07:59:38;56210.94;;;-140.63;73.67
11302;BME280;5706;50.650;13.380;2022-08-19T08:02:06;56206.94;;;-140.63;73.39
11302;BME280;5706;50.650;13.380;2022-08-19T08:04:36;56161.22;;;-140.63;72.80
11302;BME280;5706;50.650;13.380;2022-08-19T08:07:21;56187.06;;;-140.63;72.79
11302;BME280;5706;50.650;13.380;2022-08-19T08:10:07;56210.94;;;-140.63;72.53
11302;BME280;5706;50.650;13.380;2022-08-19T08:12:37;56210.94;;;-140.63;72.43
11302;BME280;5706;50.650;13.380;2022-08-19T08:15:11;56175.13;;;-140.63;72.40
11302;BME280;5706;50.650;13.380;2022-08-19T08:17:42;56195.03;;;-140.63;71.99
11302;BME280;5706;50.650;13.380;2022-08-19T08:20:12;56210.94;;;-140.63;72.46
11302;BME280;5706;50.650;13.380;2022-08-19T08:22:43;56145.31;;;-140.63;72.05
11302;BME280;5706;50.650;13.380;2022-08-19T08:25:28;56165.19;;;-140.63;71.36
11302;BME280;5706;50.650;13.380;2022-08-19T08:27:57;56175.13;;;-140.63;71.02
11302;BME280;5706;50.650;13.380;2022-08-19T08:30:26;56202.97;;;-140.63;71.42
11302;BME280;5706;50.650;13.380;2022-08-19T08:32:55;56173.16;;;-140.63;70.20
11302;BME280;5706;50.650;13.380;2022-08-19T08:35:24;56191.03;;;-140.63;70.30
11302;BME280;5706;50.650;13.380;2022-08-19T08:37:53;56191.03;;;-140.63;70.07
11302;BME280;5706;50.650;13.380;2022-08-19T08:40:28;56193.03;;;-140.63;69.56
11302;BME280;5706;50.650;13.380;2022-08-19T08:43:01;56175.13;;;-140.63;69.84
11302;BME280;5706;50.650;13.380;2022-08-19T08:45:35;56199.00;;;-140.63;70.11
11302;BME280;5706;50.650;13.380;2022-08-19T08:48:17;56199.00;;;-140.63;70.40
11302;BME280;5706;50.650;13.380;2022-08-19T08:50:52;56171.16;;;-140.63;69.56
11302;BME280;5706;50.650;13.380;2022-08-19T08:53:24;56191.03;;;-140.63;69.88
11302;BME280;5706;50.650;13.380;2022-08-19T08:55:53;56191.03;;;-140.63;69.81
11302;BME280;5706;50.650;13.380;2022-08-19T08:58:26;56195.03;;;-140.63;70.12
11302;BME280;5706;50.650;13.380;2022-08-19T09:01:00;56187.06;;;-140.63;70.17
11302;BME280;5706;50.650;13.380;2022-08-19T09:03:28;56185.06;;;-140.63;69.94
11302;BME280;5706;50.650;13.380;2022-08-19T09:06:01;56177.13;;;-140.63;70.22
11302;BME280;5706;50.650;13.380;2022-08-19T09:08:39;56228.81;;;-140.63;70.37
11302;BME280;5706;50.650;13.380;2022-08-19T09:11:15;56191.03;;;-140.63;71.01
11302;BME280;5706;50.650;13.380;2022-08-19T09:14:04;56191.03;;;-140.63;70.44
11302;BME280;5706;50.650;13.380;2022-08-19T09:16:37;56193.03;;;-140.63;70.09
11302;BME280;5706;50.650;13.380;2022-08-19T09:19:07;56200.97;;;-140.63;70.16
11302;BME280;5706;50.650;13.380;2022-08-19T09:21:37;56202.97;;;-140.63;70.13
11302;BME280;5706;50.650;13.380;2022-08-19T09:24:05;56216.88;;;-140.63;69.70
11302;BME280;5706;50.650;13.380;2022-08-19T09:26:33;56200.97;;;-140.63;69.82
11302;BME280;5706;50.650;13.380;2022-08-19T09:29:01;56200.97;;;-140.63;70.37
11302;BME280;5706;50.650;13.380;2022-08-19T09:31:31;56204.97;;;-140.63;71.10
11302;BME280;5706;50.650;13.380;2022-08-19T09:33:59;56220.88;;;-140.63;71.57
11302;BME280;5706;50.650;13.380;2022-08-19T09:36:29;56189.06;;;-140.63;70.90
11302;BME280;5706;50.650;13.380;2022-08-19T09:39:00;56204.97;;;-140.63;71.47
11302;BME280;5706;50.650;13.380;2022-08-19T09:41:29;56204.97;;;-140.63;71.53
11302;BME280;5706;50.650;13.380;2022-08-19T09:43:58;56202.97;;;-140.63;72.00
11302;BME280;5706;50.650;13.380;2022-08-19T09:46:27;56204.97;;;-140.63;71.46
11302;BME280;5706;50.650;13.380;2022-08-19T09:48:58;56193.03;;;-140.63;70.13
11302;BME280;5706;50.650;13.380;2022-08-19T09:51:27;56200.97;;;-140.63;70.28
11302;BME280;5706;50.650;13.380;2022-08-19T09:54:00;56191.03;;;-140.63;70.40
11302;BME280;5706;50.650;13.380;2022-08-19T09:56:29;56195.03;;;-140.63;70.34
11302;BME280;5706;50.650;13.380;2022-08-19T09:58:58;56212.91;;;-140.63;70.24
11302;BME280;5706;50.650;13.380;2022-08-19T10:01:29;56187.06;;;-140.63;70.03
11302;BME280;5706;50.650;13.380;2022-08-19T10:03:59;56216.88;;;-140.63;69.89
11302;BME280;5706;50.650;13.380;2022-08-19T10:06:29;56224.84;;;-140.63;70.65
11302;BME280;5706;50.650;13.380;2022-08-19T10:08:59;56220.88;;;-140.63;70.14
11302;BME280;5706;50.650;13.380;2022-08-19T10:11:29;56214.91;;;-140.63;70.33
11302;BME280;5706;50.650;13.380;2022-08-19T10:13:57;56226.84;;;-140.63;70.82
11302;BME280;5706;50.650;13.380;2022-08-19T10:16:25;56226.84;;;-140.63;70.35
11302;BME280;5706;50.650;13.380;2022-08-19T10:18:54;56193.03;;;-140.63;70.94
11302;BME280;5706;50.650;13.380;2022-08-19T10:21:24;56200.97;;;-140.63;70.63
11302;BME280;5706;50.650;13.380;2022-08-19T10:23:55;56204.97;;;-140.63;70.32
11302;BME280;5706;50.650;13.380;2022-08-19T10:26:29;56204.97;;;-140.63;69.82
11302;BME280;5706;50.650;13.380;2022-08-19T10:28:59;56197.00;;;-140.63;70.47
11302;BME280;5706;50.650;13.380;2022-08-19T10:31:29;56216.88;;;-140.63;69.74
11302;BME280;5706;50.650;13.380;2022-08-19T10:33:59;56214.91;;;-140.63;69.94
11302;BME280;5706;50.650;13.380;2022-08-19T10:36:30;56210.94;;;-140.63;69.89
11302;BME280;5706;50.650;13.380;2022-08-19T10:39:03;56193.03;;;-140.63;71.37
11302;BME280;5706;50.650;13.380;2022-08-19T10:41:36;56206.94;;;-140.63;70.87
11302;BME280;5706;50.650;13.380;2022-08-19T10:44:07;56246.72;;;-140.63;71.61
11302;BME280;5706;50.650;13.380;2022-08-19T10:46:40;56218.88;;;-140.63;72.15
11302;BME280;5706;50.650;13.380;2022-08-19T10:49:10;56228.81;;;-140.63;71.79
11302;BME280;5706;50.650;13.380;2022-08-19T10:51:39;56220.88;;;-140.63;72.23
11302;BME280;5706;50.650;13.380;2022-08-19T10:54:25;56218.88;;;-140.63;72.00
11302;BME280;5706;50.650;13.380;2022-08-19T10:57:15;56214.91;;;-140.63;71.63
11302;BME280;5706;50.650;13.380;2022-08-19T10:59:42;56197.00;;;-140.63;71.67
11302;BME280;5706;50.650;13.380;2022-08-19T11:02:11;56195.03;;;-140.63;71.71
11302;BME280;5706;50.650;13.380;2022-08-19T11:04:40;56240.75;;;-140.63;72.49
11302;BME280;5706;50.650;13.380;2022-08-19T11:07:08;56216.88;;;-140.63;72.07
11302;BME280;5706;50.650;13.380;2022-08-19T11:09:39;56204.97;;;-140.63;71.95
11302;BME280;5706;50.650;13.380;2022-08-19T11:12:09;56197.00;;;-140.63;71.58
11302;BME280;5706;50.650;13.380;2022-08-19T11:14:39;56183.09;;;-140.63;72.21
11302;BME280;5706;50.650;13.380;2022-08-19T11:17:07;56189.06;;;-140.63;71.37
11302;BME280;5706;50.650;13.380;2022-08-19T11:19:36;56177.13;;;-140.63;71.48
11302;BME280;5706;50.650;13.380;2022-08-19T11:22:04;56204.97;;;-140.63;71.78
11302;BME280;5706;50.650;13.380;2022-08-19T11:24:35;56216.88;;;-140.63;71.47
11302;BME280;5706;50.650;13.380;2022-08-19T11:27:05;56206.94;;;-140.63;71.67
11302;BME280;5706;50.650;13.380;2022-08-19T11:29:35;56204.97;;;-140.63;70.64
11302;BME280;5706;50.650;13.380;2022-08-19T11:32:08;56199.00;;;-140.63;70.14
11302;BME280;5706;50.650;13.380;2022-08-19T11:34:38;56230.81;;;-140.63;70.54
11302;BME280;5706;50.650;13.380;2022-08-19T11:37:06;56199.00;;;-140.63;70.25
11302;BME280;5706;50.650;13.380;2022-08-19T11:39:36;56210.94;;;-140.63;70.12
11302;BME280;5706;50.650;13.380;2022-08-19T11:42:05;56195.03;;;-140.63;69.92
11302;BME280;5706;50.650;13.380;2022-08-19T11:44:55;56202.97;;;-140.63;69.62
11302;BME280;5706;50.650;13.380;2022-08-19T11:47:23;56193.03;;;-140.63;70.01
11302;BME280;5706;50.650;13.380;2022-08-19T11:49:51;56202.97;;;-140.63;70.07
11302;BME280;5706;50.650;13.380;2022-08-19T11:52:20;56214.91;;;-140.63;69.47
11302;BME280;5706;50.650;13.380;2022-08-19T11:54:48;56200.97;;;-140.63;69.74
11302;BME280;5706;50.650;13.380;2022-08-19T11:57:16;56181.09;;;-140.63;70.22
11302;BME280;5706;50.650;13.380;2022-08-19T11:59:48;56202.97;;;-140.63;69.88
11302;BME280;5706;50.650;13.380;2022-08-19T12:02:19;56242.72;;;-140.63;70.01
11302;BME280;5706;50.650;13.380;2022-08-19T12:04:48;56179.13;;;-140.63;70.45
11302;BME280;5706;50.650;13.380;2022-08-19T12:07:16;56218.88;;;-140.63;70.14
11302;BME280;5706;50.650;13.380;2022-08-19T12:09:44;56195.03;;;-140.63;70.05
11302;BME280;5706;50.650;13.380;2022-08-19T12:12:12;56195.03;;;-140.63;69.39
11302;BME280;5706;50.650;13.380;2022-08-19T12:14:40;56220.88;;;-140.63;69.64
11302;BME280;5706;50.650;13.380;2022-08-19T12:17:08;56226.84;;;-140.63;69.73
11302;BME280;5706;50.650;13.380;2022-08-19T12:19:38;56208.94;;;-140.63;69.59
11302;BME280;5706;50.650;13.380;2022-08-19T12:22:05;56226.84;;;-140.63;69.52
11302;BME280;5706;50.650;13.380;2022-08-19T12:24:33;56226.84;;;-140.63;69.21
11302;BME280;5706;50.650;13.380;2022-08-19T12:27:01;56206.94;;;-140.63;69.21
11302;BME280;5706;50.650;13.380;2022-08-19T12:29:29;56216.88;;;-140.63;69.05
11302;BME280;5706;50.650;13.380;2022-08-19T12:31:58;56224.84;;;-140.63;69.45
11302;BME280;5706;50.650;13.380;2022-08-19T12:34:29;56222.84;;;-140.63;69.23
11302;BME280;5706;50.650;13.380;2022-08-19T12:37:02;56197.00;;;-140.63;69.53
11302;BME280;5706;50.650;13.380;2022-08-19T12:39:34;56197.00;;;-140.63;69.90
11302;BME280;5706;50.650;13.380;2022-08-19T12:42:04;56218.88;;;-140.63;70.19
11302;BME280;5706;50.650;13.380;2022-08-19T12:44:32;56226.84;;;-140.63;70.46
11302;BME280;5706;50.650;13.380;2022-08-19T12:47:00;56244.72;;;-140.63;70.57
11302;BME280;5706;50.650;13.380;2022-08-19T12:49:30;56226.84;;;-140.63;70.53
11302;BME280;5706;50.650;13.380;2022-08-19T12:52:00;56220.88;;;-140.63;70.52
11302;BME280;5706;50.650;13.380;2022-08-19T12:54:29;56214.91;;;-140.63;71.04
11302;BME280;5706;50.650;13.380;2022-08-19T12:56:57;56212.91;;;-140.63;71.59